Terminal Aerodrome Forecast
Issued by NWS

Home | Current Version | Previous Version | Text Only | Print | Product List | Glossary On
Versions: 1 2 3 4 5 6 7 8 9 10 11 12 13 14 15 16 17
114
FTAK31 PAJN 051720
TAFAYA
TAF
PAYA 051720Z 0518/0618 09003KT P6SM BKN050
     FM060800 08004KT P6SM VCSH SCT020 OVC040
     FM061200 08004KT 3SM -SHSN BKN020 OVC030
      AMD LTD TO CLD VIS AND WIND 0601/0609=

USA.gov is the U.S. government's official web portal to all federal, state and local government web resources and services.